Holly Ann — WDE9094 — position and weather

sailwx.info

Track history (hours):
 
Tides and Currents Weather Stations Pressure Air Temp Water Temp Dewpoint Dewpoint Depression Visibility Wind Speed Wind Dir Waves Ship Positions

Holly Ann

Owner: Manke Tug and Barge Co., Inc., Shelton, WA. More information available from US FCC via Universal Licensing System and Coast Guard Vessel Documentation Center.

Last reported at 2016-Apr-30 21:33 UTC. Time now 2016-Apr-30 22:31 UTC.
Position N 47°33' W 122°21'.

; draft 4.5 m.

Type: Towing. MMSI: 367413350.

Date/timePositionNaut miles runAvg speedWind from/ knotsBaromVisibWave heightAir tempDewpointWater temp
2016-Apr-30 21:33N 47°33' W 122°21'0 0.0
2016-Apr-30 20:33N 47°33' W 122°21'0 0.0
2016-Apr-30 19:33N 47°33' W 122°21'0 0.0
2016-Apr-30 18:33N 47°33' W 122°21'0 0.0
2016-Apr-30 17:33N 47°33' W 122°21'0 0.0
2016-Apr-30 16:33N 47°33' W 122°21'0 0.0
2016-Apr-30 15:33N 47°33' W 122°21'0 0.1
2016-Apr-30 14:33N 47°33' W 122°21'4 3.6
2016-Apr-30 13:33N 47°35' W 122°25'7 6.9
2016-Apr-30 12:33N 47°29' W 122°30'7 7.3
2016-Apr-30 11:33N 47°22' W 122°32'8 8.4
2016-Apr-30 10:33N 47°13' W 122°35'2 0.1
2016-Apr-29 03:34N 47°12' W 122°37'10 9.7
2016-Apr-29 02:34N 47°21' W 122°33'8 8.0
2016-Apr-29 01:34N 47°29' W 122°30'8 8.1
2016-Apr-29 00:34N 47°37' W 122°26'5 4.8
2016-Apr-28 23:34N 47°41' W 122°25'0 0.1
2016-Apr-28 22:34N 47°41' W 122°25'0 0.0
2016-Apr-28 21:34N 47°41' W 122°25'0 0.0
2016-Apr-28 20:34N 47°41' W 122°25'0 0.0
2016-Apr-28 19:34N 47°41' W 122°25'2 2.0
2016-Apr-28 18:34N 47°43' W 122°25'9 8.6
2016-Apr-28 17:32N 47°52' W 122°22'12 5.7
2016-Apr-28 15:27N 48°01' W 122°11'0 0.0
2016-Apr-28 14:27N 48°01' W 122°11'10 0.9
2016-Apr-28 02:27N 47°54' W 122°22'4 4.4
2016-Apr-28 01:33N 47°50' W 122°24'4 3.7
2016-Apr-28 00:33N 47°46' W 122°25'4 3.7
2016-Apr-27 23:34N 47°43' W 122°26'4 4.4
2016-Apr-27 22:34N 47°38' W 122°27'6 6.3
2016-Apr-27 21:33N 47°32' W 122°28'7 7.3
2016-Apr-27 20:33N 47°25' W 122°32'8 8.2
2016-Apr-27 19:33N 47°17' W 122°33'6 0.1
2016-Apr-26 00:16N 47°12' W 122°37'7 9.8
2016-Apr-25 23:33N 47°19' W 122°33'8 7.7
2016-Apr-25 22:33N 47°26' W 122°31'7 7.3
2016-Apr-25 21:33N 47°33' W 122°27'4 4.3
2016-Apr-25 20:33N 47°34' W 122°21'0 0.3
2016-Apr-25 19:33N 47°33' W 122°21'0 0.0
2016-Apr-25 18:33N 47°33' W 122°21'0 0.0
2016-Apr-25 17:33N 47°33' W 122°21'0 0.0
2016-Apr-25 16:33N 47°33' W 122°21'0 0.0
2016-Apr-25 15:33N 47°33' W 122°21'0 0.0
2016-Apr-25 14:34N 47°33' W 122°21'0 0.0
2016-Apr-25 13:34N 47°33' W 122°21'0 0.0
2016-Apr-25 12:33N 47°33' W 122°21'0 0.0
2016-Apr-25 11:34N 47°33' W 122°21'1 0.6
2016-Apr-25 10:34N 47°34' W 122°21'3 3.5
2016-Apr-25 09:34N 47°34' W 122°26'7 7.1
2016-Apr-25 08:33N 47°28' W 122°31'7 7.3
2016-Apr-25 07:33N 47°21' W 122°32'10 8.2
2016-Apr-25 06:20N 47°12' W 122°38'6 7.1
2016-Apr-25 05:31N 47°10' W 122°46'  
2016-Apr-21 12:26N 47°11' W 122°56'13 4.0
2016-Apr-21 09:10N 47°12' W 122°37'5 7.8
2016-Apr-21 08:33N 47°16' W 122°33'7 6.8
2016-Apr-21 07:33N 47°23' W 122°32'6 6.1
2016-Apr-21 06:33N 47°29' W 122°30'5 5.3
2016-Apr-21 05:34N 47°34' W 122°28'5 5.4
2016-Apr-21 04:34N 47°39' W 122°28'5 5.3
2016-Apr-21 03:33N 47°45' W 122°27'6 5.5
2016-Apr-21 02:33N 47°50' W 122°25'6 6.2
2016-Apr-21 01:34N 47°55' W 122°20'6 6.0
2016-Apr-21 00:33N 47°59' W 122°14'2 1.9
2016-Apr-20 23:16N 48°01' W 122°11'0 0.0
2016-Apr-20 22:20N 48°01' W 122°11'  
Track history (hours):
 
Tides and Currents Weather Stations Pressure Air Temp Water Temp Dewpoint Dewpoint Depression Visibility Wind Speed Wind Dir Waves Ship Positions

Holly Ann

Owner: Manke Tug and Barge Co., Inc., Shelton, WA. More information available from US FCC via Universal Licensing System and Coast Guard Vessel Documentation Center.

Last reported at 2016-Apr-30 21:33 UTC. Time now 2016-Apr-30 22:31 UTC.
Position N 47°33' W 122°21'.

; draft 4.5 m.

Type: Towing. MMSI: 367413350.

Date/timePositionNaut miles runAvg speedWind from/ knotsBaromVisibWave heightAir tempDewpointWater temp
2016-Apr-30 21:33N 47°33' W 122°21'0 0.0
2016-Apr-30 20:33N 47°33' W 122°21'0 0.0
2016-Apr-30 19:33N 47°33' W 122°21'0 0.0
2016-Apr-30 18:33N 47°33' W 122°21'0 0.0
2016-Apr-30 17:33N 47°33' W 122°21'0 0.0
2016-Apr-30 16:33N 47°33' W 122°21'0 0.0
2016-Apr-30 15:33N 47°33' W 122°21'0 0.1
2016-Apr-30 14:33N 47°33' W 122°21'4 3.6
2016-Apr-30 13:33N 47°35' W 122°25'7 6.9
2016-Apr-30 12:33N 47°29' W 122°30'7 7.3
2016-Apr-30 11:33N 47°22' W 122°32'8 8.4
2016-Apr-30 10:33N 47°13' W 122°35'2 0.1
2016-Apr-29 03:34N 47°12' W 122°37'10 9.7
2016-Apr-29 02:34N 47°21' W 122°33'8 8.0
2016-Apr-29 01:34N 47°29' W 122°30'8 8.1
2016-Apr-29 00:34N 47°37' W 122°26'5 4.8
2016-Apr-28 23:34N 47°41' W 122°25'0 0.1
2016-Apr-28 22:34N 47°41' W 122°25'0 0.0
2016-Apr-28 21:34N 47°41' W 122°25'0 0.0
2016-Apr-28 20:34N 47°41' W 122°25'0 0.0
2016-Apr-28 19:34N 47°41' W 122°25'2 2.0
2016-Apr-28 18:34N 47°43' W 122°25'9 8.6
2016-Apr-28 17:32N 47°52' W 122°22'12 5.7
2016-Apr-28 15:27N 48°01' W 122°11'0 0.0
2016-Apr-28 14:27N 48°01' W 122°11'10 0.9
2016-Apr-28 02:27N 47°54' W 122°22'4 4.4
2016-Apr-28 01:33N 47°50' W 122°24'4 3.7
2016-Apr-28 00:33N 47°46' W 122°25'4 3.7
2016-Apr-27 23:34N 47°43' W 122°26'4 4.4
2016-Apr-27 22:34N 47°38' W 122°27'6 6.3
2016-Apr-27 21:33N 47°32' W 122°28'7 7.3
2016-Apr-27 20:33N 47°25' W 122°32'8 8.2
2016-Apr-27 19:33N 47°17' W 122°33'6 0.1
2016-Apr-26 00:16N 47°12' W 122°37'7 9.8
2016-Apr-25 23:33N 47°19' W 122°33'8 7.7
2016-Apr-25 22:33N 47°26' W 122°31'7 7.3
2016-Apr-25 21:33N 47°33' W 122°27'4 4.3
2016-Apr-25 20:33N 47°34' W 122°21'0 0.3
2016-Apr-25 19:33N 47°33' W 122°21'0 0.0
2016-Apr-25 18:33N 47°33' W 122°21'0 0.0
2016-Apr-25 17:33N 47°33' W 122°21'0 0.0
2016-Apr-25 16:33N 47°33' W 122°21'0 0.0
2016-Apr-25 15:33N 47°33' W 122°21'0 0.0
2016-Apr-25 14:34N 47°33' W 122°21'0 0.0
2016-Apr-25 13:34N 47°33' W 122°21'0 0.0
2016-Apr-25 12:33N 47°33' W 122°21'0 0.0
2016-Apr-25 11:34N 47°33' W 122°21'1 0.6
2016-Apr-25 10:34N 47°34' W 122°21'3 3.5
2016-Apr-25 09:34N 47°34' W 122°26'7 7.1
2016-Apr-25 08:33N 47°28' W 122°31'7 7.3
2016-Apr-25 07:33N 47°21' W 122°32'10 8.2
2016-Apr-25 06:20N 47°12' W 122°38'6 7.1
2016-Apr-25 05:31N 47°10' W 122°46'  
2016-Apr-21 12:26N 47°11' W 122°56'13 4.0
2016-Apr-21 09:10N 47°12' W 122°37'5 7.8
2016-Apr-21 08:33N 47°16' W 122°33'7 6.8
2016-Apr-21 07:33N 47°23' W 122°32'6 6.1
2016-Apr-21 06:33N 47°29' W 122°30'5 5.3
2016-Apr-21 05:34N 47°34' W 122°28'5 5.4
2016-Apr-21 04:34N 47°39' W 122°28'5 5.3
2016-Apr-21 03:33N 47°45' W 122°27'6 5.5
2016-Apr-21 02:33N 47°50' W 122°25'6 6.2
2016-Apr-21 01:34N 47°55' W 122°20'6 6.0
2016-Apr-21 00:33N 47°59' W 122°14'2 1.9
2016-Apr-20 23:16N 48°01' W 122°11'0 0.0
2016-Apr-20 22:20N 48°01' W 122°11'  

Dump ship's entire track history